Latest Coastal Weather Observations for Nullarbor

IDS60701

Issued at 12:21 am CST Friday 28 April 2017 (issued every 10 minutes, with the page automatically refreshed every 10 minutes)

About coastal observations | Map of coastal stations | Coastal observations for SA | Marine services | Other Formats
Station Details ID: 018106 Name: NULLARBOR Lat: -31.45 Lon: 130.90 Height: 64.0 m
Data from the previous 72 hours. | See also: Recent months at Nullarbor
Date/Time
CST
Temp
°C
Wind Pressure Rain since
9am
mm
Weather Cloud Vis
km
Sea
Height
m
Swell
Dir  Spd
kts
Gust
kts
hPa Trend Height
m
Period
s
Dir
28/12:00am 10.8 E 8 10 1029.2 - 0.0 - - 10 - - - -
 
Date/Time
CST
Temp
°C
Wind Pressure Rain since
9am
mm
Weather Cloud Vis
km
Sea
Height
m
Swell
Dir  Spd
kts
Gust
kts
hPa Trend Height
m
Period
s
Dir
27/11:30pm 10.6 E 9 10 1029.4 - 0.0 - - 10 - - - -
27/11:00pm 10.1 E 7 9 1029.5 - 0.0 - - 10 - - - -
27/10:30pm 10.6 ESE 8 9 1029.6 - 0.0 - - 10 - - - -
27/10:00pm 11.3 ESE 8 9 1029.5 - 0.0 - - 10 - - - -
27/09:30pm 10.7 SE 9 9 1029.6 - 0.0 - - 10 - - - -
27/09:00pm 11.4 SSE 8 9 1029.4 - 0.0 - - 10 - - - -
27/08:30pm 11.5 SE 7 8 1029.1 - 0.0 - - 10 - - - -
27/08:00pm 11.6 SE 8 9 1028.9 - 0.0 - - 10 - - - -
27/07:30pm 12.2 SE 7 8 1028.8 - 0.0 - Partly cloudy 10 - - - -
27/07:00pm 12.6 SSE 6 7 1028.6 - 0.0 - Partly cloudy 10 - - - -
27/06:30pm 13.5 SSE 7 8 1028.3 - 0.0 - Partly cloudy 10 - - - -
27/06:00pm 15.3 SSE 8 9 1028.3 - 0.0 - - 10 - - - -
27/05:30pm 16.3 SSE 10 13 1028.2 - 0.0 - - 10 - - - -
27/05:00pm 17.5 SSE 11 14 1027.9 - 0.0 - - 10 - - - -
27/04:30pm 16.9 SSE 10 13 1028.0 - 0.0 - Partly cloudy 10 - - - -
27/04:00pm 17.6 SSE 8 12 1028.2 - 0.0 - Partly cloudy 10 - - - -
27/03:30pm 18.6 SSE 7 11 1028.3 - 0.0 - Partly cloudy 10 - - - -
27/03:00pm 17.9 S 8 11 1028.5 - 0.0 - Mostly cloudy 10 - - - -
27/02:30pm 17.5 S 9 12 1028.7 - 0.0 - Cloudy 10 - - - -
27/02:00pm 18.0 SSE 9 13 1029.0 - 0.0 - Cloudy 10 - - - -
27/01:30pm 18.5 SSE 9 11 1029.4 - 0.0 - Partly cloudy 10 - - - -
27/01:00pm 18.2 SSE 9 13 1029.6 - 0.0 - Cloudy 10 - - - -
27/12:30pm 18.0 SSE 9 14 1030.0 - 0.0 - Cloudy 10 - - - -
27/12:00pm 17.9 S 5 8 1030.4 - 0.0 - Cloudy 10 - - - -
27/11:30am 18.1 SSW 3 6 1030.7 - 0.0 - Cloudy 10 - - - -
27/11:00am 17.8 W 1 3 1030.9 - 0.0 - Cloudy 10 - - - -
27/10:30am 17.6 CALM 0 3 1031.1 - 0.0 - Cloudy 10 - - - -
27/10:00am 16.7 NW 1 3 1031.1 - 0.0 - Cloudy 10 - - - -
27/09:30am 16.1 CALM 0 4 1030.9 - 0.0 - Partly cloudy 10 - - - -
27/09:00am 15.5 NW 2 4 1030.8 - 0.0 - - 10 - - - -
27/08:30am 14.2 NW 3 5 1030.4 - 0.0 - - 10 - - - -
27/08:00am 12.5 NW 4 5 1030.2 - 0.0 - - 10 - - - -
27/07:30am 11.8 NW 3 4 1030.0 - 0.0 - Partly cloudy 10 - - - -
27/07:00am 12.2 NW 4 5 1030.0 - 0.0 - Cloudy 10 - - - -
27/06:30am 12.2 NW 4 6 1030.0 - 0.0 - Partly cloudy 10 - - - -
27/06:00am 12.2 NW 4 5 1029.9 - 0.0 - Cloudy 10 - - - -
27/05:30am 12.0 NNW 5 6 1029.7 - 0.0 - Partly cloudy 10 - - - -
27/05:00am 12.0 NNW 5 6 1029.6 - 0.0 - Partly cloudy 10 - - - -
27/04:30am 12.1 NNW 7 9 1029.3 - 0.0 - Partly cloudy 10 - - - -
27/04:00am 11.7 NNW 6 7 1029.2 - 0.0 - Cloudy 10 - - - -
27/03:30am 11.1 NNW 5 6 1029.1 - 0.0 - Cloudy 10 - - - -
27/03:00am 10.9 NNW 5 6 1029.1 - 0.0 - Cloudy 10 - - - -
27/02:30am 10.9 NW 1 4 1028.9 - 0.0 - Partly cloudy 10 - - - -
27/02:00am 11.0 E 4 5 1028.7 - 0.0 - Partly cloudy 10 - - - -
27/01:30am 11.9 ESE 4 6 1028.8 - 0.0 - Partly cloudy 10 - - - -
27/01:00am 12.1 SSE 6 7 1028.8 - 0.0 - Partly cloudy 10 - - - -
27/12:30am 12.1 SSE 5 8 1028.7 - 0.0 - Cloudy 10 - - - -
27/12:00am 11.6 SSE 6 7 1028.6 - 0.0 - Partly cloudy 10 - - - -
 
Date/Time
CST
Temp
°C
Wind Pressure Rain since
9am
mm
Weather Cloud Vis
km
Sea
Height
m
Swell
Dir  Spd
kts
Gust
kts
hPa Trend Height
m
Period
s
Dir
26/11:30pm 11.5 SSE 7 8 1028.5 - 0.0 - Partly cloudy 10 - - - -
26/11:00pm 12.0 SSE 7 8 1028.6 - 0.0 - Partly cloudy 10 - - - -
26/10:30pm 11.8 S 6 7 1028.5 - 0.0 - Partly cloudy 10 - - - -
26/10:00pm 12.3 S 6 7 1028.5 - 0.0 - Partly cloudy 10 - - - -
26/09:30pm 11.1 S 8 9 1028.4 - 0.0 - Partly cloudy 10 - - - -
26/09:00pm 11.6 SSW 7 9 1028.3 - 0.0 - Mostly clear 10 - - - -
26/08:30pm 11.4 SSW 7 9 1028.2 - 0.0 - Partly cloudy 10 - - - -
26/08:00pm 11.8 S 7 8 1028.1 - 0.0 - - 10 - - - -
26/07:30pm 13.0 S 6 7 1027.9 - 0.0 - Partly cloudy 10 - - - -
26/07:00pm 13.0 SSE 5 6 1027.5 - 0.0 - Partly cloudy 10 - - - -
26/06:30pm 13.3 SSE 6 7 1027.2 - 0.0 - - 10 - - - -
26/06:00pm 14.7 SSE 7 8 1027.4 - 0.0 - Partly cloudy 10 - - - -
26/05:30pm 15.8 SSE 12 15 1027.3 - 0.0 - Partly cloudy 10 - - - -
26/05:00pm 16.6 SSE 11 16 1027.0 - 0.0 - Partly cloudy 10 - - - -
26/04:30pm 17.0 SSE 14 18 1026.8 - 0.0 - Partly cloudy 10 - - - -
26/04:00pm 16.8 S 11 15 1026.8 - 0.0 - Partly cloudy 10 - - - -
26/03:30pm 17.2 S 10 13 1026.9 - 0.0 - Partly cloudy 10 - - - -
26/03:00pm 18.0 S 11 16 1026.9 - 0.0 - Mostly cloudy 10 - - - -
26/02:30pm 17.7 SSE 11 16 1026.9 - 0.0 - Partly cloudy 10 - - - -
26/02:00pm 18.8 S 11 19 1027.0 - 0.0 - Partly cloudy 10 - - - -
26/01:30pm 18.5 S 11 17 1027.2 - 0.0 - Partly cloudy 10 - - - -
26/01:00pm 17.8 S 12 16 1027.4 - 0.0 - Cloudy 10 - - - -
26/12:30pm 17.8 SSE 13 16 1027.8 - 0.0 - Partly cloudy 10 - - - -
26/12:00pm 17.8 S 11 15 1028.1 - 0.0 - Mostly cloudy 10 - - - -
26/11:30am 18.6 S 10 15 1028.0 - 0.0 - Partly cloudy 10 - - - -
26/11:00am 18.0 S 9 14 1028.1 - 0.0 - Partly cloudy 10 - - - -
26/10:30am 18.4 S 9 13 1028.0 - 0.0 - Partly cloudy 10 - - - -
26/10:00am 17.5 S 10 14 1028.0 - 0.0 - Partly cloudy 10 - - - -
26/09:30am 16.8 S 12 17 1027.8 - 0.0 - Partly cloudy 10 - - - -
26/09:00am 15.5 S 11 13 1027.5 - 3.4 - Mostly cloudy 10 - - - -
26/08:30am 14.7 S 9 11 1027.2 - 3.4 - Cloudy 10 - - - -
26/08:00am 14.2 S 8 11 1026.6 - 3.4 - Partly cloudy 10 - - - -
26/07:30am 12.0 SW 4 5 1026.4 - 3.4 - Partly cloudy 10 - - - -
26/07:00am 12.0 SW 5 5 1026.2 - 3.4 - Partly cloudy 10 - - - -
26/06:30am 11.2 W 2 4 1026.1 - 3.4 - Cloudy 10 - - - -
26/06:00am 11.4 SSW 5 7 1025.8 - 3.4 - Mostly clear 10 - - - -
26/05:30am 11.1 S 8 10 1025.4 - 3.4 - - 10 - - - -
26/05:00am 11.9 SSW 7 10 1025.1 - 3.4 - Partly cloudy 10 - - - -
26/04:30am 11.9 SW 8 8 1024.9 - 3.4 - Partly cloudy 10 - - - -
26/04:00am 11.8 SW 7 9 1024.9 - 3.4 - Partly cloudy 10 - - - -
26/03:30am 11.7 S 8 10 1024.8 - 3.4 - Partly cloudy 10 - - - -
26/03:00am 11.7 SSW 7 8 1024.9 - 3.4 - Mostly clear 10 - - - -
26/02:30am 12.4 SSW 10 13 1024.9 - 3.4 - - 10 - - - -
26/02:00am 13.0 SSW 10 13 1024.7 - 3.4 - - 10 - - - -
26/01:30am 12.9 SW 9 11 1024.4 - 3.4 - Partly cloudy 10 - - - -
26/01:00am 13.2 SW 9 10 1023.9 - 3.4 - Partly cloudy 10 - - - -
26/12:30am 13.5 SW 8 10 1023.7 - 3.2 - - 10 - - - -
26/12:04am 14.2 SW 7 9 1023.7 - 3.2 - Partly cloudy 10 - - - -
26/12:00am 14.3 SW 8 13 1023.8 - 3.2 Recent precip. Mostly cloudy 10 - - - -
 
Date/Time
CST
Temp
°C
Wind Pressure Rain since
9am
mm
Weather Cloud Vis
km
Sea
Height
m
Swell
Dir  Spd
kts
Gust
kts
hPa Trend Height
m
Period
s
Dir
25/11:53pm 14.4 WSW 10 17 1023.8 - 3.2 - Partly cloudy 7 - - - -
25/11:30pm 13.8 WSW 7 9 1023.7 - 3.0 - Partly cloudy 10 - - - -
25/11:00pm 14.2 SW 7 9 1023.9 - 2.8 - Partly cloudy 10 - - - -
25/10:50pm 14.3 SW 8 11 1023.9 - 2.8 - Partly cloudy 10 - - - -
25/10:30pm 14.8 SW 13 19 1024.0 - 2.8 - Partly cloudy 7 - - - -
25/10:00pm 13.7 SW 8 12 1023.9 - 2.6 - Partly cloudy 10 - - - -
25/09:30pm 12.8 WSW 5 7 1023.6 - 2.6 - - 10 - - - -
25/09:00pm 13.4 WSW 6 7 1023.3 - 2.6 - - 10 - - - -
25/08:30pm 14.0 WSW 7 9 1023.1 - 2.6 - Partly cloudy 10 - - - -
25/08:00pm 14.8 W 6 9 1022.8 - 2.6 - Partly cloudy 10 - - - -
25/07:30pm 15.0 W 5 5 1022.2 - 2.6 - Partly cloudy 10 - - - -
25/07:14pm 15.0 WSW 6 10 1022.1 - 2.6 - Partly cloudy 10 - - - -
25/07:00pm 15.0 SW 10 17 1022.0 - 2.6 - Partly cloudy 4 - - - -
25/06:55pm 15.6 WSW 8 12 1022.0 - 2.2 - Partly cloudy 6 - - - -
25/06:30pm 15.6 W 8 10 1021.5 - 1.8 - Partly cloudy 10 - - - -
25/06:00pm 15.8 W 7 10 1021.5 - 1.8 - Cloudy 10 - - - -
25/05:30pm 15.8 W 10 14 1021.3 - 1.8 - Partly cloudy 10 - - - -
25/05:00pm 15.8 WSW 14 19 1021.2 - 1.8 - Partly cloudy 10 - - - -
25/04:56pm 15.7 WSW 15 19 1021.2 - 1.8 - Partly cloudy 10 - - - -
25/04:30pm 15.9 WSW 16 23 1021.0 - 1.4 - Partly cloudy 3 - - - -
25/04:20pm 16.4 WSW 22 29 1020.8 - 0.4 - Partly cloudy 6 - - - -
25/04:11pm 18.9 SW 15 25 1020.3 - 0.2 - Partly cloudy 10 - - - -
25/04:00pm 18.8 SW 14 20 1020.3 - 0.2 - Partly cloudy 10 - - - -
25/03:30pm 17.9 SW 12 18 1020.4 - 0.2 - Partly cloudy 10 - - - -
25/03:00pm 17.6 SSW 11 16 1020.1 - 0.2 Rain Cloudy 10 - - - -
25/02:30pm 18.0 WSW 15 22 1020.2 - 0.0 - Partly cloudy 10 - - - -
25/02:00pm 19.8 WSW 14 20 1020.1 - 0.0 - Partly cloudy 10 - - - -
25/01:30pm 20.4 WSW 14 20 1020.3 - 0.0 - Partly cloudy 10 - - - -
25/01:00pm 20.1 WSW 12 16 1020.7 - 0.0 - Partly cloudy 10 - - - -
25/12:30pm 20.2 WSW 13 19 1020.9 - 0.0 - Partly cloudy 10 - - - -
25/12:00pm 20.0 SW 13 17 1021.3 - 0.0 - Mostly clear 10 - - - -
25/11:30am 19.3 WSW 9 13 1021.5 - 0.0 - Partly cloudy 10 - - - -
25/11:00am 18.5 SW 11 15 1021.5 - 0.0 - Partly cloudy 10 - - - -
25/10:30am 18.2 SW 11 17 1021.6 - 0.0 - Partly cloudy 10 - - - -
25/10:00am 18.8 SW 11 16 1021.4 - 0.0 - - 10 - - - -
25/09:30am 18.0 SW 10 13 1021.1 - 0.0 - - 10 - - - -
25/09:00am 15.9 WSW 4 5 1021.0 - 0.6 - - 10 - - - -
25/08:30am 13.6 W 5 6 1020.9 - 0.6 - - 10 - - - -
25/08:00am 11.4 WNW 6 7 1020.4 - 0.6 - - 10 - - - -
25/07:30am 10.8 W 6 8 1020.1 - 0.6 - Partly cloudy 10 - - - -
25/07:00am 10.1 WNW 7 7 1019.8 - 0.6 - - 10 - - - -
25/06:30am 10.2 WNW 7 7 1019.6 - 0.6 - - 10 - - - -
25/06:00am 10.2 WNW 7 7 1019.7 - 0.6 - - 10 - - - -
25/05:30am 10.7 NW 5 6 1019.4 - 0.6 - - 10 - - - -
25/05:00am 11.1 WNW 6 7 1019.2 - 0.6 - - 10 - - - -
25/04:30am 11.8 W 5 6 1019.0 - 0.6 - - 10 - - - -
25/04:00am 12.9 WSW 6 7 1018.8 - 0.6 - - 10 - - - -
25/03:30am 13.1 SW 6 7 1018.7 - 0.6 - - 10 - - - -
25/03:00am 13.5 SW 7 8 1018.8 - 0.6 - Partly cloudy 10 - - - -
25/02:30am 13.5 SW 7 8 1018.9 - 0.6 - Partly cloudy 10 - - - -
25/02:00am 14.0 WSW 6 7 1019.1 - 0.6 - Partly cloudy 10 - - - -
25/01:30am 14.8 SW 7 9 1019.2 - 0.6 - Partly cloudy 10 - - - -
25/01:00am 15.5 SW 7 9 1019.3 - 0.6 - Cloudy 10 - - - -
25/12:30am 15.3 WSW 6 8 1019.6 - 0.6 - Cloudy 10 - - - -

Other Formats:

Comma delimited format used in spreadsheet applications
http://www.bom.gov.au/fwo/IDS60701/IDS60701.94651.axf

JavaScript Object Notation format (JSON) in row-major order
http://www.bom.gov.au/fwo/IDS60701/IDS60701.94651.json